createdAt,value
2023-10-26T00:06:13.573Z,11.4
2023-10-26T00:21:23.971Z,11.4
2023-10-26T00:36:34.586Z,11.4
2023-10-26T00:51:44.684Z,11.4
2023-10-26T01:06:54.902Z,11.4
2023-10-26T01:22:04.396Z,11.4
2023-10-26T01:37:14.254Z,11.4
2023-10-26T01:52:24.393Z,11.3
2023-10-26T02:07:34.170Z,11.3
2023-10-26T02:22:44.267Z,11.3
2023-10-26T02:37:54.415Z,11.3
2023-10-26T02:53:08.168Z,11.3
2023-10-26T03:08:18.106Z,11.3
2023-10-26T03:23:28.413Z,11.3
2023-10-26T03:38:38.153Z,11.3
2023-10-26T03:53:48.129Z,11.2
2023-10-26T04:08:58.482Z,11.2
2023-10-26T04:24:08.468Z,11.2
2023-10-26T04:39:18.368Z,11.2
2023-10-26T04:54:28.085Z,11.1
2023-10-26T05:09:38.301Z,11.1
2023-10-26T05:24:47.863Z,11.1
2023-10-26T05:39:57.694Z,11.1
2023-10-26T05:55:08.543Z,11.1
2023-10-26T06:10:17.632Z,11.1
2023-10-26T06:25:27.155Z,11.1
2023-10-26T06:40:37.036Z,11.1
2023-10-26T06:55:47.555Z,11.1
2023-10-26T07:10:57.425Z,11.1
2023-10-26T07:26:08.398Z,11.1
2023-10-26T07:41:17.804Z,11.1
2023-10-26T07:57:21.633Z,11.1
2023-10-26T08:12:32.292Z,11.1
2023-10-26T08:27:41.972Z,11.2
2023-10-26T08:42:51.808Z,11.2
2023-10-26T08:58:01.297Z,11.3
2023-10-26T09:13:11.483Z,11.3
2023-10-26T09:28:22.226Z,11.3
2023-10-26T09:43:33.103Z,11.4
2023-10-26T09:58:43.321Z,11.5
2023-10-26T10:13:52.676Z,11.6
2023-10-26T10:29:02.947Z,11.6
2023-10-26T10:44:12.749Z,11.6
2023-10-26T10:59:22.443Z,11.6
2023-10-26T11:14:32.350Z,11.6
2023-10-26T11:29:42.574Z,11.6
2023-10-26T11:44:52.575Z,11.6
2023-10-26T12:00:03.088Z,11.6
2023-10-26T12:15:13.202Z,11.5
2023-10-26T12:30:23.787Z,11.5
2023-10-26T12:45:33.588Z,11.5
2023-10-26T13:00:44.360Z,11.5
2023-10-26T13:15:55.313Z,11.5
2023-10-26T13:31:05.952Z,11.5
2023-10-26T13:46:16.881Z,11.5
2023-10-26T14:01:27.600Z,11.5
2023-10-26T14:16:38.419Z,11.5
2023-10-26T14:31:48.792Z,11.5
2023-10-26T14:46:59.049Z,11.5
2023-10-26T15:02:09.557Z,11.5
2023-10-26T15:17:19.714Z,11.4
2023-10-26T15:32:30.178Z,11.4
2023-10-26T15:47:40.551Z,11.4
2023-10-26T16:02:52.646Z,11.4
2023-10-26T16:18:03.179Z,11.4
2023-10-26T16:33:14.104Z,11.4
2023-10-26T16:48:24.102Z,11.4
2023-10-26T17:03:35.044Z,11.4
2023-10-26T17:18:45.910Z,11.4
2023-10-26T17:33:55.226Z,11.4
2023-10-26T17:49:06.088Z,11.4
2023-10-26T18:04:16.742Z,11.4
2023-10-26T18:19:26.466Z,11.3
2023-10-26T18:34:36.652Z,11.3
2023-10-26T18:49:47.009Z,11.3
2023-10-26T19:04:57.139Z,11.3
2023-10-26T19:20:08.493Z,11.3
2023-10-26T19:35:19.193Z,11.3
2023-10-26T19:50:31.970Z,11.3
2023-10-26T20:05:42.202Z,11.3
2023-10-26T20:20:52.377Z,11.2
2023-10-26T20:36:02.758Z,11.2
2023-10-26T20:51:12.846Z,11.1
2023-10-26T21:06:23.158Z,11.1
2023-10-26T21:21:33.220Z,11
2023-10-26T21:36:44.497Z,10.9
2023-10-26T21:51:54.798Z,10.9
2023-10-26T22:07:06.240Z,10.9
2023-10-26T22:22:16.910Z,10.8
2023-10-26T22:37:27.029Z,10.8
2023-10-26T22:52:37.057Z,10.8
2023-10-26T23:07:47.188Z,10.8
2023-10-26T23:22:57.321Z,10.8
2023-10-26T23:38:09.200Z,10.7
2023-10-26T23:53:19.599Z,10.6
